Time;durP1;ratioP1;P1;durP2;ratioP2;P2;SDS_P1;SDS_P2;PMS_P1;PMS_P2;Temp;Humidity;BMP_temperature;BMP_pressure;BME280_temperature;BME280_humidity;BME280_pressure;Samples;Min_cycle;Max_cycle;Signal;HPM_P1;HPM_P2
2022/03/09 00:02:14;;;;;;;21.90;13.03;;;4.10;99.90;;;;;;4993854;28;20190;-69
2022/03/09 00:04:39;;;;;;;23.17;13.83;;;4.20;99.90;;;;;;5000494;28;20275;-69
2022/03/09 00:07:05;;;;;;;21.37;12.50;;;4.00;99.90;;;;;;4992554;28;20310;-69
2022/03/09 00:09:31;;;;;;;20.17;12.10;;;3.80;99.90;;;;;;4983747;28;20211;-68
2022/03/09 00:11:57;;;;;;;24.83;12.97;;;3.70;99.90;;;;;;4988897;28;20199;-68
2022/03/09 00:14:22;;;;;;;24.23;12.47;;;3.50;99.90;;;;;;5001388;28;20186;-68
2022/03/09 00:16:48;;;;;;;23.57;11.57;;;3.40;99.90;;;;;;4992444;28;20275;-68
2022/03/09 00:19:14;;;;;;;19.80;13.17;;;3.40;99.90;;;;;;4994174;28;20939;-68
2022/03/09 00:21:40;;;;;;;30.33;11.20;;;3.40;99.90;;;;;;4997519;28;20187;-68
2022/03/09 00:24:06;;;;;;;20.60;12.43;;;3.40;99.90;;;;;;4979398;28;20270;-69
2022/03/09 00:26:31;;;;;;;23.40;13.17;;;3.30;99.90;;;;;;5011529;28;20185;-69
2022/03/09 00:28:57;;;;;;;20.27;11.83;;;3.30;99.90;;;;;;4993436;28;20212;-69
2022/03/09 00:31:23;;;;;;;22.80;12.77;;;3.30;99.90;;;;;;4994988;28;20195;-69
2022/03/09 00:33:48;;;;;;;21.50;12.87;;;3.30;99.90;;;;;;5010345;28;20195;-68
2022/03/09 00:36:14;;;;;;;20.40;12.10;;;3.40;99.90;;;;;;5000859;28;20196;-68
2022/03/09 00:38:40;;;;;;;19.93;13.13;;;3.60;99.90;;;;;;4986118;28;20589;-68
2022/03/09 00:41:05;;;;;;;25.50;12.83;;;3.80;99.90;;;;;;4992086;28;20192;-68
2022/03/09 00:43:31;;;;;;;21.17;12.50;;;3.80;99.90;;;;;;5004472;28;20195;-68
2022/03/09 00:45:57;;;;;;;20.07;12.20;;;3.60;99.90;;;;;;4993089;28;20194;-68
2022/03/09 00:48:23;;;;;;;23.60;12.80;;;3.40;99.90;;;;;;4987801;28;20204;-68
2022/03/09 00:50:48;;;;;;;25.43;13.10;;;3.30;99.90;;;;;;4995845;28;20214;-68
2022/03/09 00:53:14;;;;;;;19.13;11.40;;;3.10;99.90;;;;;;5007530;28;20227;-68
2022/03/09 00:55:43;;;;;;;28.30;13.90;;;3.10;99.90;;;;;;4982898;28;20620;-68
2022/03/09 00:58:09;;;;;;;22.77;13.30;;;3.10;99.90;;;;;;5005234;28;20191;-69
2022/03/09 01:00:38;;;;;;;20.23;12.27;;;3.20;99.90;;;;;;4998240;28;20192;-69
2022/03/09 01:03:03;;;;;;;24.20;13.60;;;3.10;99.90;;;;;;4977044;28;20279;-69
2022/03/09 01:05:29;;;;;;;22.30;13.70;;;3.00;99.90;;;;;;4994727;28;20614;-68
2022/03/09 01:07:55;;;;;;;23.47;13.70;;;3.00;99.90;;;;;;4994988;28;20223;-68
2022/03/09 01:10:20;;;;;;;20.20;11.97;;;2.90;99.90;;;;;;4991758;28;20593;-73
2022/03/09 01:12:46;;;;;;;23.87;12.57;;;2.90;99.90;;;;;;4981847;28;20187;-69
2022/03/09 01:15:12;;;;;;;23.97;13.47;;;2.80;99.90;;;;;;4992727;28;20234;-69
2022/03/09 01:17:41;;;;;;;25.13;14.73;;;2.90;99.90;;;;;;5003362;28;20653;-69
2022/03/09 01:20:07;;;;;;;22.23;12.90;;;2.80;99.90;;;;;;4992892;28;20641;-68
2022/03/09 01:22:33;;;;;;;23.80;14.17;;;2.70;99.90;;;;;;4993658;28;20243;-68
2022/03/09 01:24:58;;;;;;;22.83;13.47;;;2.70;99.90;;;;;;5009361;28;20191;-68
2022/03/09 01:27:24;;;;;;;24.57;14.10;;;2.60;99.90;;;;;;5016227;28;20214;-68
2022/03/09 01:29:50;;;;;;;24.63;13.37;;;2.70;99.90;;;;;;5008230;28;20594;-68
2022/03/09 01:32:15;;;;;;;22.20;14.23;;;2.70;99.90;;;;;;4996476;28;20645;-68
2022/03/09 01:34:41;;;;;;;22.30;12.83;;;3.10;99.90;;;;;;4996305;28;20185;-68
2022/03/09 01:37:07;;;;;;;19.27;11.77;;;3.60;99.90;;;;;;4989324;28;20721;-69
2022/03/09 01:39:32;;;;;;;20.33;13.20;;;3.50;99.90;;;;;;5005679;28;20184;-68
2022/03/09 01:41:58;;;;;;;20.43;11.37;;;3.30;99.90;;;;;;4998876;28;20270;-68
2022/03/09 01:44:25;;;;;;;28.43;13.90;;;3.20;99.90;;;;;;5014894;28;20199;-69
2022/03/09 01:46:52;;;;;;;21.10;12.37;;;3.00;99.90;;;;;;4995108;28;20672;-69
2022/03/09 01:49:19;;;;;;;23.70;12.43;;;3.00;99.90;;;;;;4996928;28;20195;-68
2022/03/09 01:51:46;;;;;;;25.37;12.70;;;2.90;99.90;;;;;;5005991;28;20180;-68
2022/03/09 01:54:13;;;;;;;23.10;13.50;;;2.90;99.90;;;;;;5009396;28;20179;-68
2022/03/09 01:56:39;;;;;;;23.07;13.53;;;2.80;99.90;;;;;;5011817;28;20597;-68
2022/03/09 01:59:07;;;;;;;24.53;14.30;;;2.80;99.90;;;;;;5003852;28;20191;-68
2022/03/09 02:01:33;;;;;;;21.53;11.70;;;2.80;99.90;;;;;;4994680;28;20184;-69
2022/03/09 02:04:00;;;;;;;24.97;13.37;;;2.90;99.90;;;;;;5002131;28;20291;-68
2022/03/09 02:06:26;;;;;;;18.97;12.30;;;2.80;99.90;;;;;;4997864;28;20617;-69
2022/03/09 02:11:38;;;;;;;19.93;12.67;;;2.70;99.90;;;;;;4992421;28;20199;-68
2022/03/09 02:14:04;;;;;;;20.07;12.17;;;2.90;99.90;;;;;;4994777;28;20184;-68
2022/03/09 02:16:29;;;;;;;24.23;11.77;;;2.90;99.90;;;;;;4998017;28;20184;-69
2022/03/09 02:18:55;;;;;;;25.33;12.43;;;2.90;99.90;;;;;;5002519;28;20216;-68
2022/03/09 02:21:26;;;;;;;21.73;11.87;;;2.80;99.90;;;;;;5012575;28;20254;-69
2022/03/09 02:23:55;;;;;;;20.70;12.57;;;2.80;99.90;;;;;;5011702;28;20189;-69
2022/03/09 02:26:22;;;;;;;23.73;11.80;;;2.70;99.90;;;;;;5002621;28;20559;-68
2022/03/09 02:28:48;;;;;;;19.13;12.17;;;2.70;99.90;;;;;;5009410;28;20798;-68
2022/03/09 02:31:14;;;;;;;20.37;12.00;;;2.60;99.90;;;;;;5010198;28;20200;-68
2022/03/09 02:33:45;;;;;;;19.93;12.93;;;2.80;99.90;;;;;;5005895;28;20641;-68
2022/03/09 02:36:11;;;;;;;20.40;11.13;;;2.90;99.90;;;;;;4999462;28;20195;-68
2022/03/09 02:38:36;;;;;;;21.13;12.50;;;3.10;99.90;;;;;;4994285;28;20192;-68
2022/03/09 02:41:02;;;;;;;21.10;12.30;;;3.00;99.90;;;;;;4996676;28;20212;-68
2022/03/09 02:43:27;;;;;;;23.30;12.67;;;2.80;99.90;;;;;;4996568;28;20266;-68
2022/03/09 02:45:53;;;;;;;18.60;11.30;;;2.80;99.90;;;;;;4995012;28;20191;-68
2022/03/09 02:48:19;;;;;;;23.63;12.20;;;2.80;99.90;;;;;;4988599;28;20208;-69
2022/03/09 02:50:44;;;;;;;20.73;12.17;;;2.60;99.90;;;;;;4990190;28;20199;-68
2022/03/09 02:53:10;;;;;;;19.90;12.50;;;2.50;99.90;;;;;;5014431;28;20188;-68
2022/03/09 02:55:39;;;;;;;27.40;12.70;;;2.60;99.90;;;;;;5009817;28;20188;-68
2022/03/09 02:58:07;;;;;;;23.17;12.10;;;2.50;99.90;;;;;;4998920;28;20195;-68
2022/03/09 03:00:33;;;;;;;22.17;12.87;;;2.50;99.90;;;;;;5005102;28;20188;-68
2022/03/09 03:02:58;;;;;;;21.93;12.80;;;2.70;99.90;;;;;;4997149;28;20187;-68
2022/03/09 03:05:24;;;;;;;24.30;11.57;;;2.90;99.90;;;;;;4993934;28;20551;-68
2022/03/09 03:07:50;;;;;;;21.10;10.63;;;2.90;99.90;;;;;;4995688;28;20227;-68
2022/03/09 03:10:15;;;;;;;23.97;12.33;;;2.60;99.90;;;;;;4978685;28;20188;-68
2022/03/09 03:12:41;;;;;;;21.77;12.57;;;2.50;99.90;;;;;;4993981;28;20192;-68
2022/03/09 03:15:07;;;;;;;20.47;12.63;;;2.40;99.90;;;;;;4986566;28;20198;-68
2022/03/09 03:17:37;;;;;;;17.83;11.50;;;2.50;99.90;;;;;;5012830;28;20202;-69
2022/03/09 03:20:04;;;;;;;20.73;12.43;;;2.70;99.90;;;;;;4995450;28;20256;-68
2022/03/09 03:22:30;;;;;;;18.40;11.20;;;2.70;99.90;;;;;;5010172;28;20226;-69
2022/03/09 03:24:55;;;;;;;20.77;11.70;;;2.50;99.90;;;;;;4999532;28;20187;-68
2022/03/09 03:27:21;;;;;;;23.73;13.60;;;2.50;99.90;;;;;;4993294;28;20715;-68
2022/03/09 03:29:47;;;;;;;24.50;13.70;;;2.70;99.90;;;;;;5005990;28;20633;-68
2022/03/09 03:32:12;;;;;;;23.63;12.47;;;2.70;99.90;;;;;;4996509;28;20191;-68
2022/03/09 03:34:38;;;;;;;23.87;13.17;;;2.80;99.90;;;;;;5012982;28;20202;-68
2022/03/09 03:37:06;;;;;;;22.97;12.97;;;2.80;99.90;;;;;;4996301;28;20183;-68
2022/03/09 03:39:32;;;;;;;18.50;11.67;;;2.80;99.90;;;;;;5012574;28;20271;-68
2022/03/09 03:41:57;;;;;;;22.10;12.60;;;2.60;99.90;;;;;;5001790;28;20285;-68
2022/03/09 03:44:23;;;;;;;23.90;12.90;;;2.40;99.90;;;;;;4993596;28;20583;-68
2022/03/09 03:46:48;;;;;;;18.57;11.70;;;2.30;99.90;;;;;;5012852;28;20198;-68
2022/03/09 03:49:14;;;;;;;20.67;12.80;;;2.30;99.90;;;;;;5012741;28;20210;-68
2022/03/09 03:51:40;;;;;;;21.33;12.47;;;2.20;99.90;;;;;;5008924;28;20192;-68
2022/03/09 03:54:06;;;;;;;21.43;11.67;;;2.30;99.90;;;;;;4995029;28;20634;-69
2022/03/09 03:56:35;;;;;;;19.10;12.23;;;2.10;99.90;;;;;;5009138;28;20195;-69
2022/03/09 03:59:00;;;;;;;24.07;13.07;;;2.10;99.90;;;;;;4996892;28;20189;-68
2022/03/09 04:01:26;;;;;;;27.67;12.80;;;2.10;99.90;;;;;;4996057;28;20190;-68
2022/03/09 04:03:51;;;;;;;22.03;12.80;;;2.20;99.90;;;;;;5010677;28;20520;-68
2022/03/09 04:06:18;;;;;;;18.77;11.63;;;2.50;99.90;;;;;;4995663;28;20240;-68
2022/03/09 04:08:43;;;;;;;23.93;11.47;;;2.60;99.90;;;;;;5009993;28;21031;-68
2022/03/09 04:11:09;;;;;;;24.10;12.97;;;2.80;99.90;;;;;;5009565;28;20187;-71
2022/03/09 04:13:35;;;;;;;22.67;13.87;;;2.60;99.90;;;;;;5009689;28;20191;-68
2022/03/09 04:16:01;;;;;;;22.03;12.73;;;2.70;99.90;;;;;;4994960;28;20214;-69
2022/03/09 04:18:27;;;;;;;23.90;12.33;;;2.80;99.90;;;;;;4993498;28;20280;-68
2022/03/09 04:20:52;;;;;;;23.00;12.50;;;2.50;99.90;;;;;;5000001;28;20570;-68
2022/03/09 04:23:18;;;;;;;22.43;12.60;;;2.40;99.90;;;;;;5008910;28;20195;-68
2022/03/09 04:25:44;;;;;;;22.67;12.93;;;2.30;99.90;;;;;;4993236;28;20187;-68
2022/03/09 04:28:10;;;;;;;22.90;12.73;;;2.30;99.90;;;;;;4993374;28;20213;-68
2022/03/09 04:30:35;;;;;;;24.33;11.90;;;2.20;99.90;;;;;;4994534;28;20188;-69
2022/03/09 04:33:01;;;;;;;20.27;11.60;;;2.20;99.90;;;;;;4993981;28;20196;-68
2022/03/09 04:35:27;;;;;;;22.00;11.47;;;2.30;99.90;;;;;;4994256;28;20187;-68
2022/03/09 04:37:52;;;;;;;18.23;11.40;;;2.50;99.90;;;;;;4995902;28;20199;-68
2022/03/09 04:40:18;;;;;;;21.63;11.93;;;2.50;99.90;;;;;;5002597;28;20220;-68
2022/03/09 04:42:44;;;;;;;15.37;10.77;;;2.40;99.90;;;;;;4991110;28;20192;-68
2022/03/09 04:45:10;;;;;;;15.00;11.03;;;2.50;99.90;;;;;;4993073;28;20191;-68
2022/03/09 04:47:36;;;;;;;15.47;10.50;;;2.50;99.90;;;;;;4999940;28;20207;-68
2022/03/09 04:50:02;;;;;;;19.40;9.90;;;2.40;99.90;;;;;;5000761;28;20679;-68
2022/03/09 04:52:28;;;;;;;26.10;10.73;;;2.40;99.90;;;;;;4991946;28;20203;-68
2022/03/09 04:54:53;;;;;;;20.00;10.33;;;2.30;99.90;;;;;;5009040;28;20187;-68
2022/03/09 04:57:19;;;;;;;22.50;10.30;;;2.30;99.90;;;;;;5008206;28;20189;-68
2022/03/09 04:59:45;;;;;;;17.27;9.83;;;2.30;99.90;;;;;;4996047;28;20186;-69
2022/03/09 05:02:11;;;;;;;18.83;9.27;;;2.40;99.90;;;;;;5014924;28;20218;-68
2022/03/09 05:04:36;;;;;;;22.63;12.27;;;2.30;99.90;;;;;;4999471;28;20278;-68
2022/03/09 05:07:02;;;;;;;17.13;9.53;;;2.30;99.90;;;;;;5014739;28;20198;-69
2022/03/09 05:09:31;;;;;;;13.30;8.90;;;2.20;99.90;;;;;;5015806;28;20211;-69
2022/03/09 05:11:57;;;;;;;18.33;10.70;;;2.20;99.90;;;;;;5000053;28;20245;-68
2022/03/09 05:14:22;;;;;;;18.30;10.00;;;2.10;99.90;;;;;;4980984;28;20582;-68
2022/03/09 05:16:48;;;;;;;25.00;11.63;;;2.10;99.90;;;;;;4979894;28;20192;-68
2022/03/09 05:19:14;;;;;;;15.70;10.23;;;2.00;99.90;;;;;;5003564;28;20184;-69
2022/03/09 05:21:39;;;;;;;17.33;9.20;;;2.10;99.90;;;;;;5015713;28;20202;-68
2022/03/09 05:24:05;;;;;;;20.33;10.00;;;2.00;99.90;;;;;;4996417;28;20186;-69
2022/03/09 05:26:31;;;;;;;16.53;9.83;;;2.10;99.90;;;;;;4988044;28;20271;-68
2022/03/09 05:28:57;;;;;;;18.67;11.20;;;2.10;99.90;;;;;;4996457;28;20196;-68
2022/03/09 05:31:24;;;;;;;21.20;11.67;;;2.10;99.90;;;;;;4979796;28;20227;-68
2022/03/09 05:33:50;;;;;;;21.03;11.13;;;2.20;99.90;;;;;;4997637;28;20666;-69
2022/03/09 05:36:15;;;;;;;17.10;9.27;;;2.30;99.90;;;;;;4998375;28;20187;-72
2022/03/09 05:38:41;;;;;;;17.03;10.00;;;2.30;99.90;;;;;;4998846;28;20190;-72
2022/03/09 05:41:07;;;;;;;20.97;11.83;;;2.30;99.90;;;;;;5012235;28;20694;-68
2022/03/09 05:43:32;;;;;;;21.00;9.83;;;2.30;99.90;;;;;;4996187;28;20274;-68
2022/03/09 05:45:58;;;;;;;21.37;10.90;;;2.40;99.90;;;;;;5015617;28;20195;-68
2022/03/09 05:48:24;;;;;;;16.97;10.53;;;2.60;99.90;;;;;;4998490;28;20570;-68
2022/03/09 05:50:49;;;;;;;16.27;9.23;;;2.70;99.90;;;;;;5014638;28;20195;-68
2022/03/09 05:53:15;;;;;;;16.70;10.17;;;2.60;99.90;;;;;;4995288;28;20188;-68
2022/03/09 05:55:41;;;;;;;20.33;9.43;;;2.50;99.90;;;;;;4995825;28;20294;-68
2022/03/09 05:58:07;;;;;;;26.30;11.77;;;2.40;99.90;;;;;;4996213;28;20588;-69
2022/03/09 06:00:33;;;;;;;17.67;10.23;;;2.30;99.90;;;;;;4998334;28;20209;-68
2022/03/09 06:02:58;;;;;;;22.20;10.80;;;2.20;99.90;;;;;;5013319;28;20551;-68
2022/03/09 06:05:24;;;;;;;25.20;12.17;;;2.10;99.90;;;;;;4995552;28;20183;-68
2022/03/09 06:07:50;;;;;;;21.90;11.53;;;2.00;99.90;;;;;;4994377;28;20579;-68
2022/03/09 06:10:17;;;;;;;18.37;10.63;;;2.00;99.90;;;;;;4979435;28;20664;-68
2022/03/09 06:12:42;;;;;;;21.73;10.63;;;2.00;99.90;;;;;;4992877;28;20195;-68
2022/03/09 06:15:08;;;;;;;19.60;10.37;;;1.90;99.90;;;;;;5011276;28;20243;-69
2022/03/09 06:17:48;;;;;;;19.93;11.37;;;2.00;99.90;;;;;;5013424;28;20194;-69
2022/03/09 06:20:19;;;;;;;19.00;10.43;;;2.00;99.90;;;;;;4994894;28;20200;-68
2022/03/09 06:22:45;;;;;;;16.23;9.77;;;2.10;99.90;;;;;;4995395;28;20188;-69
2022/03/09 06:25:11;;;;;;;23.20;11.60;;;2.20;99.90;;;;;;5010821;28;20199;-75
2022/03/09 06:27:42;;;;;;;21.77;10.50;;;2.30;99.90;;;;;;5005236;28;20284;-75
2022/03/09 06:30:08;;;;;;;20.07;11.87;;;2.40;99.90;;;;;;5025941;28;20190;-70
2022/03/09 06:32:34;;;;;;;24.97;11.23;;;2.30;99.90;;;;;;4996512;28;20206;-70
2022/03/09 06:35:02;;;;;;;26.00;10.73;;;2.50;99.90;;;;;;5013469;28;20249;-70
2022/03/09 06:37:28;;;;;;;25.10;11.77;;;2.50;99.90;;;;;;4996468;28;20588;-69
2022/03/09 06:39:56;;;;;;;19.27;11.07;;;2.70;99.90;;;;;;4994262;28;20200;-69
2022/03/09 06:42:23;;;;;;;20.57;11.23;;;2.70;99.90;;;;;;4987492;28;20196;-70
2022/03/09 06:44:49;;;;;;;23.67;11.53;;;2.70;99.90;;;;;;5006079;28;20500;-65
2022/03/09 06:47:15;;;;;;;24.03;11.07;;;2.70;99.90;;;;;;5011952;28;20179;-68
2022/03/09 06:49:40;;;;;;;21.10;11.13;;;2.70;99.90;;;;;;5013644;28;20188;-69
2022/03/09 06:52:07;;;;;;;21.90;12.80;;;2.70;99.90;;;;;;5012763;28;20183;-70
2022/03/09 06:54:32;;;;;;;17.30;10.40;;;2.70;99.90;;;;;;5015204;28;20353;-69
2022/03/09 06:56:58;;;;;;;24.77;13.13;;;2.80;99.90;;;;;;5011339;28;20691;-70
2022/03/09 06:59:24;;;;;;;21.93;12.20;;;2.80;99.90;;;;;;4981669;28;20560;-70
2022/03/09 07:01:49;;;;;;;24.90;12.47;;;2.90;99.90;;;;;;4987559;28;20632;-71
2022/03/09 07:04:15;;;;;;;22.70;10.90;;;2.90;99.90;;;;;;4986057;28;20192;-71
2022/03/09 07:06:41;;;;;;;18.30;12.00;;;2.90;99.90;;;;;;5008667;28;20188;-71
2022/03/09 07:09:06;;;;;;;30.87;11.77;;;2.90;99.90;;;;;;5005607;28;20219;-71
2022/03/09 07:11:32;;;;;;;24.50;12.10;;;3.00;99.90;;;;;;5014709;28;20547;-68
2022/03/09 07:13:58;;;;;;;28.07;13.03;;;3.10;99.90;;;;;;4999201;28;20187;-70
2022/03/09 07:16:24;;;;;;;24.83;13.30;;;3.30;99.90;;;;;;4995632;28;20579;-69
2022/03/09 07:18:49;;;;;;;25.27;12.27;;;4.30;99.90;;;;;;5010528;28;20199;-70
2022/03/09 07:21:15;;;;;;;24.47;12.70;;;5.80;99.90;;;;;;4994230;28;20230;-70
2022/03/09 07:23:41;;;;;;;24.93;12.47;;;7.50;99.90;;;;;;4993837;28;20210;-71
2022/03/09 07:26:08;;;;;;;18.43;11.97;;;9.00;99.90;;;;;;5012956;28;20670;-77
2022/03/09 07:28:33;;;;;;;24.73;12.37;;;10.20;99.90;;;;;;4993407;28;20255;-71
2022/03/09 07:30:59;;;;;;;20.77;12.03;;;11.10;99.90;;;;;;5000044;28;20195;-68
2022/03/09 07:33:25;;;;;;;23.93;13.40;;;11.90;99.90;;;;;;5013181;28;20183;-70
2022/03/09 07:35:51;;;;;;;22.27;12.52;;;12.60;99.90;;;;;;5014173;28;20180;-69
2022/03/09 07:38:17;;;;;;;31.70;12.63;;;13.40;99.90;;;;;;5009656;28;20196;-69
2022/03/09 07:40:43;;;;;;;23.80;13.23;;;14.00;99.90;;;;;;5009977;28;20191;-70
2022/03/09 07:43:10;;;;;;;25.35;14.20;;;14.50;99.90;;;;;;5012433;28;20187;-70
2022/03/09 07:45:35;;;;;;;19.98;12.85;;;14.70;99.90;;;;;;5001787;28;20646;-70
2022/03/09 07:48:02;;;;;;;26.88;13.20;;;15.00;99.90;;;;;;4994192;28;20307;-70
2022/03/09 07:50:28;;;;;;;23.52;12.15;;;15.50;99.90;;;;;;4995518;28;20192;-70
2022/03/09 07:52:54;;;;;;;25.60;14.18;;;15.20;99.90;;;;;;5006504;28;20678;-70
2022/03/09 07:55:20;;;;;;;21.35;13.15;;;15.30;99.90;;;;;;5002248;28;20194;-71
2022/03/09 07:57:46;;;;;;;29.70;15.05;;;15.40;99.90;;;;;;4972831;28;20265;-71
2022/03/09 08:00:12;;;;;;;22.92;14.30;;;15.30;99.90;;;;;;5008134;28;20255;-71
2022/03/09 08:02:38;;;;;;;23.88;14.15;;;15.10;99.90;;;;;;4977148;28;20176;-75
2022/03/09 08:05:05;;;;;;;26.20;14.75;;;14.90;99.90;;;;;;5006353;28;20215;-68
2022/03/09 08:07:31;;;;;;;24.33;14.05;;;14.80;99.90;;;;;;5012250;28;20241;-68
2022/03/09 08:09:57;;;;;;;23.48;13.90;;;15.10;99.90;;;;;;4999667;28;20241;-69
2022/03/09 08:12:23;;;;;;;29.33;16.08;;;15.50;99.90;;;;;;5009062;28;20310;-70
2022/03/09 08:14:49;;;;;;;30.55;15.73;;;15.70;99.90;;;;;;4994809;28;20274;-67
2022/03/09 08:17:14;;;;;;;29.02;16.55;;;16.10;99.90;;;;;;5008212;28;20218;-69
2022/03/09 08:19:40;;;;;;;29.33;15.70;;;16.50;99.90;;;;;;4996295;28;20595;-68
2022/03/09 08:22:07;;;;;;;30.92;17.02;;;16.50;99.90;;;;;;5009497;28;20184;-69
2022/03/09 08:24:36;;;;;;;27.75;15.07;;;16.50;99.90;;;;;;4995351;28;20535;-71
2022/03/09 08:27:02;;;;;;;35.08;14.98;;;16.50;99.90;;;;;;4993167;28;20176;-69
2022/03/09 08:29:28;;;;;;;25.70;14.55;;;16.60;99.90;;;;;;5011024;28;20202;-68
2022/03/09 08:31:53;;;;;;;33.65;15.82;;;16.50;99.90;;;;;;5012027;28;20191;-66
2022/03/09 08:34:19;;;;;;;33.22;16.75;;;16.50;99.90;;;;;;5009955;28;20191;-67
2022/03/09 08:36:45;;;;;;;27.60;14.23;;;16.00;99.90;;;;;;5009809;28;20656;-67
2022/03/09 08:39:10;;;;;;;23.13;14.00;;;15.00;99.90;;;;;;4985089;28;20657;-67
2022/03/09 08:41:36;;;;;;;29.15;15.88;;;14.30;99.90;;;;;;5006935;28;20188;-67
2022/03/09 08:44:03;;;;;;;28.00;15.88;;;13.90;99.90;;;;;;4982498;28;20187;-66
2022/03/09 08:46:28;;;;;;;25.58;14.35;;;13.50;99.90;;;;;;5012217;28;20195;-67
2022/03/09 08:48:54;;;;;;;30.60;16.42;;;13.00;99.90;;;;;;4995423;28;20238;-67
2022/03/09 08:51:21;;;;;;;29.90;16.15;;;12.40;99.90;;;;;;4992253;28;20195;-66
2022/03/09 08:53:48;;;;;;;29.35;16.00;;;11.80;99.90;;;;;;4987409;28;20188;-68
2022/03/09 08:56:13;;;;;;;31.83;16.20;;;11.50;99.90;;;;;;5011842;28;20274;-66
2022/03/09 08:58:39;;;;;;;34.17;16.47;;;11.30;99.90;;;;;;5008363;28;20274;-67
2022/03/09 09:01:05;;;;;;;35.63;15.87;;;11.10;99.90;;;;;;4998657;28;20191;-66
2022/03/09 09:03:31;;;;;;;29.67;15.97;;;11.00;99.90;;;;;;5013007;28;20218;-65
2022/03/09 09:05:56;;;;;;;29.70;15.93;;;10.80;99.90;;;;;;4982925;28;20667;-65
2022/03/09 09:08:22;;;;;;;28.73;15.67;;;10.60;99.90;;;;;;5008314;28;20224;-65
2022/03/09 09:10:48;;;;;;;33.80;16.20;;;10.60;99.90;;;;;;5008088;28;20526;-65
2022/03/09 09:13:14;;;;;;;36.47;17.67;;;10.60;99.90;;;;;;4990150;28;20198;-68
2022/03/09 09:15:41;;;;;;;33.70;16.10;;;10.70;99.90;;;;;;5011208;28;20602;-66
2022/03/09 09:18:07;;;;;;;35.27;17.20;;;10.60;99.90;;;;;;4989035;28;20272;-68
2022/03/09 09:20:34;;;;;;;26.93;13.67;;;10.80;99.90;;;;;;5002553;28;20715;-67
2022/03/09 09:22:59;;;;;;;31.97;14.60;;;10.80;99.90;;;;;;5012209;28;20184;-68
2022/03/09 09:25:27;;;;;;;33.57;16.73;;;10.70;99.90;;;;;;5008283;28;20196;-67
2022/03/09 09:27:54;;;;;;;32.47;15.13;;;10.70;99.90;;;;;;5004905;28;20238;-69
2022/03/09 09:30:20;;;;;;;29.20;16.60;;;10.70;99.90;;;;;;5005446;28;20649;-70
2022/03/09 09:32:47;;;;;;;34.20;16.57;;;10.70;99.90;;;;;;4997172;28;20184;-68
2022/03/09 09:35:14;;;;;;;29.53;15.90;;;10.80;99.90;;;;;;5010062;28;20188;-70
2022/03/09 09:37:40;;;;;;;30.20;17.07;;;10.80;99.90;;;;;;5004001;28;20195;-67
2022/03/09 09:40:07;;;;;;;37.57;15.57;;;10.90;99.90;;;;;;5012442;28;20186;-66
2022/03/09 09:42:33;;;;;;;32.97;16.33;;;11.00;99.90;;;;;;4993528;28;20194;-67
2022/03/09 09:45:00;;;;;;;30.90;17.03;;;11.00;99.90;;;;;;4992732;28;20207;-66
2022/03/09 09:47:27;;;;;;;35.43;16.13;;;11.10;99.90;;;;;;5014813;28;20298;-67
2022/03/09 09:49:55;;;;;;;27.50;15.67;;;11.10;99.90;;;;;;5003767;28;20622;-66
2022/03/09 09:52:24;;;;;;;30.60;16.57;;;11.00;99.90;;;;;;5011104;28;20259;-67
2022/03/09 09:54:52;;;;;;;31.43;16.23;;;11.10;99.90;;;;;;4995941;28;20188;-67
2022/03/09 09:57:18;;;;;;;35.80;15.60;;;11.30;99.90;;;;;;5003343;28;20192;-67
2022/03/09 09:59:44;;;;;;;33.20;17.13;;;11.20;99.90;;;;;;5005885;28;20190;-74
2022/03/09 10:02:10;;;;;;;32.73;15.53;;;11.40;99.90;;;;;;5014621;28;20250;-66
2022/03/09 10:04:37;;;;;;;28.87;16.00;;;11.40;99.90;;;;;;5004884;28;20183;-66
2022/03/09 10:07:03;;;;;;;33.23;16.87;;;11.40;99.90;;;;;;5013790;28;20195;-66
2022/03/09 10:09:37;;;;;;;32.17;15.67;;;11.40;99.90;;;;;;5015724;28;20205;-71
2022/03/09 10:12:05;;;;;;;35.37;15.37;;;11.40;99.90;;;;;;5011944;28;20612;-70
2022/03/09 10:14:50;;;;;;;33.37;16.53;;;11.40;99.90;;;;;;4998311;28;20278;-70
2022/03/09 10:17:21;;;;;;;29.23;15.50;;;11.60;99.90;;;;;;5014398;28;20176;-72
2022/03/09 10:19:50;;;;;;;31.57;16.47;;;11.70;99.90;;;;;;5007872;28;20358;-70
2022/03/09 10:22:30;;;;;;;32.30;16.37;;;11.60;99.90;;;;;;5002201;28;20644;-68
2022/03/09 10:25:16;;;;;;;29.47;15.80;;;11.70;99.90;;;;;;5010190;28;20189;-70
2022/03/09 10:27:50;;;;;;;27.33;15.47;;;11.80;99.90;;;;;;5006771;28;20202;-70
2022/03/09 10:30:17;;;;;;;30.27;16.37;;;11.80;99.90;;;;;;5014104;28;20179;-71
2022/03/09 10:32:46;;;;;;;29.53;15.10;;;11.80;99.90;;;;;;5012778;28;20695;-71
2022/03/09 10:35:14;;;;;;;28.67;15.73;;;11.90;99.90;;;;;;5013049;28;20188;-72
2022/03/09 10:37:44;;;;;;;30.93;17.37;;;12.10;99.90;;;;;;4999824;28;20230;-73
2022/03/09 10:40:19;;;;;;;31.50;16.03;;;12.20;99.90;;;;;;5016132;28;20251;-72
2022/03/09 10:42:45;;;;;;;32.80;17.40;;;12.30;99.90;;;;;;5006138;28;20274;-72
2022/03/09 10:45:13;;;;;;;34.05;16.98;;;12.40;99.90;;;;;;5001414;28;20191;-72
2022/03/09 10:47:46;;;;;;;34.33;15.63;;;12.60;99.90;;;;;;5014974;28;20215;-71
2022/03/09 10:50:24;;;;;;;36.22;17.65;;;12.80;99.90;;;;;;5015015;28;20191;-71
2022/03/09 10:53:02;;;;;;;33.08;16.92;;;12.60;99.90;;;;;;5015168;28;20179;-72
2022/03/09 10:55:36;;;;;;;31.30;17.58;;;12.70;99.90;;;;;;4994653;28;20176;-71
2022/03/09 10:58:13;;;;;;;44.60;20.40;;;12.80;99.90;;;;;;4995538;28;20187;-72
2022/03/09 11:00:40;;;;;;;37.17;17.42;;;12.80;99.90;;;;;;4996125;28;20262;-71
2022/03/09 11:03:13;;;;;;;36.17;15.80;;;12.90;99.90;;;;;;5010782;28;20180;-72
2022/03/09 11:05:57;;;;;;;36.17;15.15;;;13.00;99.90;;;;;;4994509;28;20214;-71
2022/03/09 11:08:26;;;;;;;34.72;17.40;;;13.30;99.90;;;;;;4995339;28;20208;-72
2022/03/09 11:10:53;;;;;;;29.77;16.13;;;13.50;99.90;;;;;;4995088;28;20202;-72
2022/03/09 11:13:19;;;;;;;42.60;23.17;;;13.30;99.90;;;;;;4995688;28;20648;-72
2022/03/09 11:15:47;;;;;;;37.05;19.58;;;13.10;99.90;;;;;;4996249;28;20246;-72
2022/03/09 11:18:22;;;;;;;45.10;18.40;;;13.40;99.90;;;;;;4996765;28;20255;-72
2022/03/09 11:20:49;;;;;;;38.15;19.58;;;13.60;99.90;;;;;;5011822;28;20195;-70
2022/03/09 11:23:16;;;;;;;30.90;17.55;;;13.70;99.90;;;;;;4998977;28;20192;-73
2022/03/09 11:25:49;;;;;;;40.03;18.00;;;13.80;99.90;;;;;;5011816;28;20218;-71
2022/03/09 11:28:25;;;;;;;34.28;17.42;;;13.90;99.90;;;;;;5009270;28;20250;-73
2022/03/09 11:31:05;;;;;;;34.72;18.60;;;14.10;99.90;;;;;;5007239;28;20221;-70
2022/03/09 11:33:37;;;;;;;35.83;17.77;;;14.10;99.90;;;;;;4999659;28;20238;-71
2022/03/09 11:36:03;;;;;;;35.33;18.20;;;14.00;99.90;;;;;;5001864;28;20195;-69
2022/03/09 11:38:39;;;;;;;34.83;17.55;;;14.10;99.90;;;;;;4995503;28;20192;-70
2022/03/09 11:41:38;;;;;;;36.33;16.45;;;14.10;99.90;;;;;;5011829;28;20270;-70
2022/03/09 11:44:19;;;;;;;36.72;17.77;;;14.20;99.90;;;;;;4972768;28;20228;-70
2022/03/09 11:46:57;;;;;;;37.72;17.92;;;14.20;99.90;;;;;;5002021;28;20273;-70
2022/03/09 11:49:23;;;;;;;39.92;18.27;;;14.30;99.90;;;;;;4998715;28;20207;-69
2022/03/09 11:52:15;;;;;;;34.53;17.33;;;14.50;99.90;;;;;;4994849;28;20291;-70
2022/03/09 11:54:55;;;;;;;31.80;16.08;;;14.50;99.90;;;;;;5008945;28;20183;-70
2022/03/09 11:57:45;;;;;;;35.13;18.50;;;14.50;99.90;;;;;;4991298;28;20311;-70
2022/03/09 12:00:18;;;;;;;33.75;17.05;;;14.40;99.90;;;;;;4991517;28;20596;-71
2022/03/09 12:02:48;;;;;;;35.00;19.08;;;14.30;99.90;;;;;;5007039;28;21046;-70
2022/03/09 12:05:31;;;;;;;35.95;18.75;;;14.40;99.90;;;;;;4992705;28;20271;-71
2022/03/09 12:08:01;;;;;;;33.78;17.75;;;14.40;99.90;;;;;;4993144;28;20322;-70
2022/03/09 12:10:51;;;;;;;38.85;18.17;;;14.40;99.90;;;;;;5006887;28;20196;-71
2022/03/09 12:13:33;;;;;;;37.42;18.10;;;14.40;99.90;;;;;;4994509;28;20610;-70
2022/03/09 12:16:16;;;;;;;39.45;17.73;;;14.50;99.90;;;;;;4994774;28;20541;-70
2022/03/09 12:18:42;;;;;;;37.28;18.20;;;14.60;99.90;;;;;;5002609;28;20191;-70
2022/03/09 12:21:10;;;;;;;30.77;16.55;;;14.80;99.90;;;;;;5002622;28;20195;-70
2022/03/09 12:24:04;;;;;;;35.50;18.70;;;14.80;99.90;;;;;;5014163;28;20270;-70
2022/03/09 12:26:44;;;;;;;35.92;17.83;;;14.90;99.90;;;;;;5009091;28;20188;-71
2022/03/09 12:29:21;;;;;;;32.22;16.30;;;15.10;99.90;;;;;;5008524;28;20215;-71
2022/03/09 12:32:02;;;;;;;32.63;18.60;;;15.00;99.90;;;;;;5002310;28;20270;-71
2022/03/09 12:34:39;;;;;;;33.03;16.88;;;14.90;99.90;;;;;;4993263;28;20192;-70
2022/03/09 12:37:14;;;;;;;39.97;18.13;;;14.90;99.90;;;;;;4994454;28;20242;-70
2022/03/09 12:39:46;;;;;;;38.92;18.83;;;14.80;99.90;;;;;;5007796;28;20187;-70